sensor_id;sensor_type;location;lat;lon;timestamp;P1;durP1;ratioP1;P2;durP2;ratioP2
17528;SDS011;8882;53.192;8.184;2022-10-16T07:01:59;3.47;;;3.00;;
17528;SDS011;8882;53.192;8.184;2022-10-16T07:04:25;4.50;;;3.60;;
17528;SDS011;8882;53.192;8.184;2022-10-16T07:06:50;6.73;;;3.20;;
17528;SDS011;8882;53.192;8.184;2022-10-16T07:09:16;4.57;;;3.27;;
17528;SDS011;8882;53.192;8.184;2022-10-16T07:11:42;3.70;;;2.80;;
17528;SDS011;8882;53.192;8.184;2022-10-16T07:14:12;4.27;;;3.20;;
17528;SDS011;8882;53.192;8.184;2022-10-16T07:16:42;8.83;;;3.40;;
17528;SDS011;8882;53.192;8.184;2022-10-16T07:19:08;4.23;;;3.33;;
17528;SDS011;8882;53.192;8.184;2022-10-16T07:21:34;6.07;;;3.43;;
17528;SDS011;8882;53.192;8.184;2022-10-16T07:24:03;5.40;;;3.50;;
17528;SDS011;8882;53.192;8.184;2022-10-16T07:26:31;5.10;;;3.07;;
17528;SDS011;8882;53.192;8.184;2022-10-16T07:28:58;4.30;;;2.87;;
17528;SDS011;8882;53.192;8.184;2022-10-16T07:31:24;7.47;;;2.90;;
17528;SDS011;8882;53.192;8.184;2022-10-16T07:33:50;8.43;;;3.70;;
17528;SDS011;8882;53.192;8.184;2022-10-16T07:36:17;10.00;;;5.40;;
17528;SDS011;8882;53.192;8.184;2022-10-16T07:38:44;4.47;;;3.27;;
17528;SDS011;8882;53.192;8.184;2022-10-16T07:41:11;6.50;;;3.30;;
17528;SDS011;8882;53.192;8.184;2022-10-16T07:43:38;4.87;;;2.87;;
17528;SDS011;8882;53.192;8.184;2022-10-16T07:46:04;4.93;;;3.10;;
17528;SDS011;8882;53.192;8.184;2022-10-16T07:48:30;4.10;;;2.93;;
17528;SDS011;8882;53.192;8.184;2022-10-16T07:50:58;3.93;;;2.80;;
17528;SDS011;8882;53.192;8.184;2022-10-16T07:53:24;5.93;;;2.80;;
17528;SDS011;8882;53.192;8.184;2022-10-16T07:55:50;3.10;;;2.37;;
17528;SDS011;8882;53.192;8.184;2022-10-16T07:58:16;4.80;;;2.70;;
17528;SDS011;8882;53.192;8.184;2022-10-16T08:00:41;6.23;;;2.73;;
17528;SDS011;8882;53.192;8.184;2022-10-16T08:03:07;2.97;;;2.40;;
17528;SDS011;8882;53.192;8.184;2022-10-16T08:05:33;7.33;;;3.73;;
17528;SDS011;8882;53.192;8.184;2022-10-16T08:07:59;4.60;;;2.97;;
17528;SDS011;8882;53.192;8.184;2022-10-16T08:10:26;3.50;;;2.70;;
17528;SDS011;8882;53.192;8.184;2022-10-16T08:12:53;3.23;;;2.30;;
17528;SDS011;8882;53.192;8.184;2022-10-16T08:15:19;2.07;;;1.70;;
17528;SDS011;8882;53.192;8.184;2022-10-16T08:17:53;4.30;;;2.30;;
17528;SDS011;8882;53.192;8.184;2022-10-16T08:20:20;11.63;;;6.60;;
17528;SDS011;8882;53.192;8.184;2022-10-16T08:22:45;3.70;;;2.10;;
17528;SDS011;8882;53.192;8.184;2022-10-16T08:25:11;4.63;;;1.97;;
17528;SDS011;8882;53.192;8.184;2022-10-16T08:27:36;3.23;;;1.87;;
17528;SDS011;8882;53.192;8.184;2022-10-16T08:30:02;2.07;;;1.80;;
17528;SDS011;8882;53.192;8.184;2022-10-16T08:32:27;3.60;;;1.90;;
17528;SDS011;8882;53.192;8.184;2022-10-16T08:34:53;1.60;;;1.50;;
17528;SDS011;8882;53.192;8.184;2022-10-16T08:37:18;2.00;;;1.63;;
17528;SDS011;8882;53.192;8.184;2022-10-16T08:39:44;2.60;;;1.43;;
17528;SDS011;8882;53.192;8.184;2022-10-16T08:44:56;2.67;;;1.90;;
17528;SDS011;8882;53.192;8.184;2022-10-16T08:47:52;4.47;;;1.80;;
17528;SDS011;8882;53.192;8.184;2022-10-16T08:50:41;1.70;;;1.43;;
17528;SDS011;8882;53.192;8.184;2022-10-16T08:53:07;4.83;;;1.73;;
17528;SDS011;8882;53.192;8.184;2022-10-16T08:55:50;3.10;;;1.20;;
17528;SDS011;8882;53.192;8.184;2022-10-16T08:58:18;1.70;;;1.53;;
17528;SDS011;8882;53.192;8.184;2022-10-16T09:00:45;2.90;;;1.63;;
17528;SDS011;8882;53.192;8.184;2022-10-16T09:11:31;3.43;;;1.63;;
17528;SDS011;8882;53.192;8.184;2022-10-16T09:17:26;2.40;;;1.40;;
17528;SDS011;8882;53.192;8.184;2022-10-16T09:22:43;2.97;;;1.40;;
17528;SDS011;8882;53.192;8.184;2022-10-16T09:25:17;3.93;;;1.33;;
17528;SDS011;8882;53.192;8.184;2022-10-16T09:27:51;3.30;;;1.23;;
17528;SDS011;8882;53.192;8.184;2022-10-16T09:30:19;2.17;;;1.30;;
17528;SDS011;8882;53.192;8.184;2022-10-16T09:32:46;1.00;;;0.90;;
17528;SDS011;8882;53.192;8.184;2022-10-16T09:35:18;1.13;;;1.00;;
17528;SDS011;8882;53.192;8.184;2022-10-16T09:37:47;1.33;;;1.13;;
17528;SDS011;8882;53.192;8.184;2022-10-16T09:40:28;2.70;;;1.47;;
17528;SDS011;8882;53.192;8.184;2022-10-16T09:46:21;1.43;;;1.00;;
17528;SDS011;8882;53.192;8.184;2022-10-16T09:48:50;2.73;;;1.27;;
17528;SDS011;8882;53.192;8.184;2022-10-16T09:51:20;1.23;;;1.13;;
17528;SDS011;8882;53.192;8.184;2022-10-16T09:56:25;3.30;;;0.97;;
17528;SDS011;8882;53.192;8.184;2022-10-16T09:58:51;1.37;;;0.87;;
17528;SDS011;8882;53.192;8.184;2022-10-16T10:01:18;0.83;;;0.83;;
17528;SDS011;8882;53.192;8.184;2022-10-16T10:03:45;1.63;;;0.90;;
17528;SDS011;8882;53.192;8.184;2022-10-16T10:06:17;0.93;;;0.67;;
17528;SDS011;8882;53.192;8.184;2022-10-16T10:11:43;4.17;;;0.97;;
17528;SDS011;8882;53.192;8.184;2022-10-16T10:16:45;2.47;;;0.80;;
17528;SDS011;8882;53.192;8.184;2022-10-16T10:19:13;3.07;;;0.80;;
17528;SDS011;8882;53.192;8.184;2022-10-16T10:21:48;2.50;;;0.93;;
17528;SDS011;8882;53.192;8.184;2022-10-16T10:24:16;1.57;;;1.07;;
17528;SDS011;8882;53.192;8.184;2022-10-16T10:38:45;2.13;;;0.60;;
17528;SDS011;8882;53.192;8.184;2022-10-16T10:44:07;1.73;;;0.70;;
17528;SDS011;8882;53.192;8.184;2022-10-16T10:46:45;1.63;;;1.00;;
17528;SDS011;8882;53.192;8.184;2022-10-16T10:49:49;0.77;;;0.73;;
17528;SDS011;8882;53.192;8.184;2022-10-16T10:55:03;1.50;;;0.60;;
17528;SDS011;8882;53.192;8.184;2022-10-16T10:57:34;6.17;;;0.80;;
17528;SDS011;8882;53.192;8.184;2022-10-16T11:00:33;3.90;;;0.90;;
17528;SDS011;8882;53.192;8.184;2022-10-16T11:06:08;3.13;;;0.73;;
17528;SDS011;8882;53.192;8.184;2022-10-16T11:09:28;2.03;;;0.80;;
17528;SDS011;8882;53.192;8.184;2022-10-16T11:14:21;3.83;;;1.00;;
17528;SDS011;8882;53.192;8.184;2022-10-16T11:17:19;3.77;;;1.17;;
17528;SDS011;8882;53.192;8.184;2022-10-16T11:19:52;2.53;;;0.80;;
17528;SDS011;8882;53.192;8.184;2022-10-16T11:22:34;6.97;;;1.27;;
17528;SDS011;8882;53.192;8.184;2022-10-16T11:27:42;1.80;;;0.60;;
17528;SDS011;8882;53.192;8.184;2022-10-16T11:30:28;3.13;;;0.80;;
17528;SDS011;8882;53.192;8.184;2022-10-16T11:35:37;3.40;;;1.00;;
17528;SDS011;8882;53.192;8.184;2022-10-16T11:41:23;4.90;;;0.90;;
17528;SDS011;8882;53.192;8.184;2022-10-16T11:46:40;3.00;;;0.70;;
17528;SDS011;8882;53.192;8.184;2022-10-16T11:49:14;3.30;;;0.80;;
17528;SDS011;8882;53.192;8.184;2022-10-16T11:51:45;1.37;;;0.67;;
17528;SDS011;8882;53.192;8.184;2022-10-16T11:57:08;4.67;;;0.87;;
17528;SDS011;8882;53.192;8.184;2022-10-16T11:59:45;3.40;;;0.87;;
17528;SDS011;8882;53.192;8.184;2022-10-16T12:02:33;2.07;;;0.57;;
17528;SDS011;8882;53.192;8.184;2022-10-16T12:07:41;5.17;;;0.90;;
17528;SDS011;8882;53.192;8.184;2022-10-16T12:10:20;3.10;;;0.80;;
17528;SDS011;8882;53.192;8.184;2022-10-16T12:12:48;5.63;;;1.00;;
17528;SDS011;8882;53.192;8.184;2022-10-16T12:15:24;1.80;;;0.90;;
17528;SDS011;8882;53.192;8.184;2022-10-16T12:17:55;4.50;;;1.00;;
17528;SDS011;8882;53.192;8.184;2022-10-16T12:20:28;2.63;;;0.90;;
17528;SDS011;8882;53.192;8.184;2022-10-16T12:23:01;3.63;;;0.73;;
17528;SDS011;8882;53.192;8.184;2022-10-16T12:28:21;2.30;;;0.93;;
17528;SDS011;8882;53.192;8.184;2022-10-16T12:30:54;1.40;;;0.90;;
17528;SDS011;8882;53.192;8.184;2022-10-16T12:35:52;2.13;;;0.90;;
17528;SDS011;8882;53.192;8.184;2022-10-16T12:38:24;1.47;;;0.80;;
17528;SDS011;8882;53.192;8.184;2022-10-16T12:41:03;5.27;;;0.93;;
17528;SDS011;8882;53.192;8.184;2022-10-16T12:43:43;3.47;;;0.77;;
17528;SDS011;8882;53.192;8.184;2022-10-16T12:48:37;4.77;;;1.10;;
17528;SDS011;8882;53.192;8.184;2022-10-16T12:54:03;2.67;;;0.97;;
17528;SDS011;8882;53.192;8.184;2022-10-16T13:04:52;2.30;;;0.80;;
17528;SDS011;8882;53.192;8.184;2022-10-16T13:07:35;1.03;;;0.80;;
17528;SDS011;8882;53.192;8.184;2022-10-16T13:16:21;3.97;;;0.90;;
17528;SDS011;8882;53.192;8.184;2022-10-16T13:21:38;4.73;;;1.23;;
17528;SDS011;8882;53.192;8.184;2022-10-16T13:24:27;1.90;;;1.10;;
17528;SDS011;8882;53.192;8.184;2022-10-16T13:27:07;5.77;;;1.23;;
17528;SDS011;8882;53.192;8.184;2022-10-16T13:29:52;1.70;;;1.03;;
17528;SDS011;8882;53.192;8.184;2022-10-16T13:32:25;5.50;;;1.40;;
17528;SDS011;8882;53.192;8.184;2022-10-16T13:34:52;2.17;;;0.70;;
17528;SDS011;8882;53.192;8.184;2022-10-16T13:37:19;3.20;;;1.43;;
17528;SDS011;8882;53.192;8.184;2022-10-16T13:39:47;2.13;;;0.90;;
17528;SDS011;8882;53.192;8.184;2022-10-16T13:42:19;3.77;;;1.00;;
17528;SDS011;8882;53.192;8.184;2022-10-16T13:44:49;4.03;;;0.90;;
17528;SDS011;8882;53.192;8.184;2022-10-16T13:47:18;7.10;;;1.03;;
17528;SDS011;8882;53.192;8.184;2022-10-16T13:49:46;3.80;;;0.80;;
17528;SDS011;8882;53.192;8.184;2022-10-16T13:52:16;3.50;;;0.87;;
17528;SDS011;8882;53.192;8.184;2022-10-16T13:54:46;2.57;;;0.83;;
17528;SDS011;8882;53.192;8.184;2022-10-16T13:57:13;1.77;;;0.80;;
17528;SDS011;8882;53.192;8.184;2022-10-16T13:59:42;2.53;;;1.37;;
17528;SDS011;8882;53.192;8.184;2022-10-16T14:02:25;2.10;;;1.10;;
17528;SDS011;8882;53.192;8.184;2022-10-16T14:04:53;4.90;;;2.40;;
17528;SDS011;8882;53.192;8.184;2022-10-16T14:07:23;4.43;;;2.23;;
17528;SDS011;8882;53.192;8.184;2022-10-16T14:09:51;5.77;;;3.43;;
17528;SDS011;8882;53.192;8.184;2022-10-16T14:12:17;3.83;;;1.63;;
17528;SDS011;8882;53.192;8.184;2022-10-16T14:14:44;5.20;;;2.60;;
17528;SDS011;8882;53.192;8.184;2022-10-16T14:17:18;3.00;;;1.57;;
17528;SDS011;8882;53.192;8.184;2022-10-16T14:19:50;2.27;;;0.97;;
17528;SDS011;8882;53.192;8.184;2022-10-16T14:22:29;4.90;;;1.40;;
17528;SDS011;8882;53.192;8.184;2022-10-16T14:24:57;3.63;;;0.97;;
17528;SDS011;8882;53.192;8.184;2022-10-16T14:30:48;2.37;;;0.90;;
17528;SDS011;8882;53.192;8.184;2022-10-16T14:32:57;2.30;;;1.00;;
17528;SDS011;8882;53.192;8.184;2022-10-16T14:35:26;3.53;;;1.27;;
17528;SDS011;8882;53.192;8.184;2022-10-16T14:37:57;3.63;;;1.20;;
17528;SDS011;8882;53.192;8.184;2022-10-16T14:40:26;5.10;;;1.60;;
17528;SDS011;8882;53.192;8.184;2022-10-16T14:42:54;3.33;;;0.90;;
17528;SDS011;8882;53.192;8.184;2022-10-16T14:45:21;3.23;;;0.90;;
17528;SDS011;8882;53.192;8.184;2022-10-16T14:47:52;2.97;;;1.07;;
17528;SDS011;8882;53.192;8.184;2022-10-16T14:50:20;3.70;;;1.03;;
17528;SDS011;8882;53.192;8.184;2022-10-16T14:52:46;3.93;;;1.23;;
17528;SDS011;8882;53.192;8.184;2022-10-16T14:55:11;4.00;;;1.80;;
17528;SDS011;8882;53.192;8.184;2022-10-16T14:57:37;10.10;;;2.77;;
17528;SDS011;8882;53.192;8.184;2022-10-16T15:00:15;11.03;;;3.10;;
17528;SDS011;8882;53.192;8.184;2022-10-16T15:02:40;5.77;;;1.60;;
17528;SDS011;8882;53.192;8.184;2022-10-16T15:05:12;6.90;;;2.10;;
17528;SDS011;8882;53.192;8.184;2022-10-16T15:07:39;4.87;;;2.77;;
17528;SDS011;8882;53.192;8.184;2022-10-16T15:10:05;4.87;;;3.33;;
17528;SDS011;8882;53.192;8.184;2022-10-16T15:12:31;11.23;;;4.00;;
17528;SDS011;8882;53.192;8.184;2022-10-16T15:14:56;3.50;;;1.53;;
17528;SDS011;8882;53.192;8.184;2022-10-16T15:17:22;17.20;;;7.00;;
17528;SDS011;8882;53.192;8.184;2022-10-16T15:19:47;5.50;;;3.00;;
17528;SDS011;8882;53.192;8.184;2022-10-16T15:22:13;4.20;;;2.37;;
17528;SDS011;8882;53.192;8.184;2022-10-16T15:24:38;5.43;;;2.23;;
17528;SDS011;8882;53.192;8.184;2022-10-16T15:27:04;8.33;;;3.27;;
17528;SDS011;8882;53.192;8.184;2022-10-16T15:29:30;6.97;;;2.23;;
17528;SDS011;8882;53.192;8.184;2022-10-16T15:31:56;5.87;;;2.70;;
17528;SDS011;8882;53.192;8.184;2022-10-16T15:34:21;8.60;;;2.30;;
17528;SDS011;8882;53.192;8.184;2022-10-16T15:36:47;4.37;;;2.40;;
17528;SDS011;8882;53.192;8.184;2022-10-16T15:39:16;6.33;;;2.17;;
17528;SDS011;8882;53.192;8.184;2022-10-16T15:41:44;8.20;;;2.43;;
17528;SDS011;8882;53.192;8.184;2022-10-16T15:44:12;5.87;;;4.03;;
17528;SDS011;8882;53.192;8.184;2022-10-16T15:46:38;4.70;;;1.90;;
17528;SDS011;8882;53.192;8.184;2022-10-16T15:49:03;2.53;;;1.53;;
17528;SDS011;8882;53.192;8.184;2022-10-16T15:51:29;3.77;;;1.67;;
17528;SDS011;8882;53.192;8.184;2022-10-16T15:53:58;1.70;;;1.50;;
17528;SDS011;8882;53.192;8.184;2022-10-16T15:56:26;4.20;;;1.77;;
17528;SDS011;8882;53.192;8.184;2022-10-16T15:58:53;6.17;;;1.80;;
17528;SDS011;8882;53.192;8.184;2022-10-16T16:01:19;3.13;;;1.20;;
17528;SDS011;8882;53.192;8.184;2022-10-16T16:03:45;3.30;;;1.13;;
17528;SDS011;8882;53.192;8.184;2022-10-16T16:06:11;3.87;;;1.30;;
17528;SDS011;8882;53.192;8.184;2022-10-16T16:08:38;4.57;;;1.10;;
17528;SDS011;8882;53.192;8.184;2022-10-16T16:11:05;2.43;;;1.20;;
17528;SDS011;8882;53.192;8.184;2022-10-16T16:13:33;2.47;;;1.20;;
17528;SDS011;8882;53.192;8.184;2022-10-16T16:15:59;3.80;;;1.50;;
17528;SDS011;8882;53.192;8.184;2022-10-16T16:18:25;2.87;;;1.17;;
17528;SDS011;8882;53.192;8.184;2022-10-16T16:20:51;2.60;;;1.20;;
17528;SDS011;8882;53.192;8.184;2022-10-16T16:23:17;3.37;;;2.07;;
17528;SDS011;8882;53.192;8.184;2022-10-16T16:25:44;7.93;;;2.27;;
17528;SDS011;8882;53.192;8.184;2022-10-16T16:28:10;5.60;;;2.33;;
17528;SDS011;8882;53.192;8.184;2022-10-16T16:30:39;3.80;;;1.90;;
17528;SDS011;8882;53.192;8.184;2022-10-16T16:33:04;4.40;;;1.90;;
17528;SDS011;8882;53.192;8.184;2022-10-16T16:35:30;7.53;;;2.10;;
17528;SDS011;8882;53.192;8.184;2022-10-16T16:37:55;3.90;;;1.67;;
17528;SDS011;8882;53.192;8.184;2022-10-16T16:40:21;2.40;;;1.20;;
17528;SDS011;8882;53.192;8.184;2022-10-16T16:42:47;5.43;;;1.20;;
17528;SDS011;8882;53.192;8.184;2022-10-16T16:45:13;4.37;;;1.80;;
17528;SDS011;8882;53.192;8.184;2022-10-16T16:47:39;5.60;;;1.70;;
17528;SDS011;8882;53.192;8.184;2022-10-16T16:50:05;2.13;;;1.73;;
17528;SDS011;8882;53.192;8.184;2022-10-16T16:52:31;8.20;;;2.00;;
17528;SDS011;8882;53.192;8.184;2022-10-16T16:54:57;6.33;;;1.70;;
17528;SDS011;8882;53.192;8.184;2022-10-16T16:57:23;4.03;;;1.47;;
17528;SDS011;8882;53.192;8.184;2022-10-16T16:59:49;3.63;;;1.40;;
17528;SDS011;8882;53.192;8.184;2022-10-16T17:02:16;4.33;;;1.70;;
17528;SDS011;8882;53.192;8.184;2022-10-16T17:04:42;3.07;;;2.00;;
17528;SDS011;8882;53.192;8.184;2022-10-16T17:07:07;8.00;;;2.10;;
17528;SDS011;8882;53.192;8.184;2022-10-16T17:09:33;2.80;;;1.73;;
17528;SDS011;8882;53.192;8.184;2022-10-16T17:11:58;3.27;;;1.77;;
17528;SDS011;8882;53.192;8.184;2022-10-16T17:14:24;4.63;;;2.50;;
17528;SDS011;8882;53.192;8.184;2022-10-16T17:16:51;4.63;;;2.30;;
17528;SDS011;8882;53.192;8.184;2022-10-16T17:19:17;5.70;;;2.13;;
17528;SDS011;8882;53.192;8.184;2022-10-16T17:21:44;7.60;;;2.63;;
17528;SDS011;8882;53.192;8.184;2022-10-16T17:24:12;6.63;;;2.63;;
17528;SDS011;8882;53.192;8.184;2022-10-16T17:26:38;4.87;;;3.10;;
17528;SDS011;8882;53.192;8.184;2022-10-16T17:29:05;9.83;;;4.63;;
17528;SDS011;8882;53.192;8.184;2022-10-16T17:31:33;7.37;;;3.53;;
17528;SDS011;8882;53.192;8.184;2022-10-16T17:34:00;6.57;;;3.30;;
17528;SDS011;8882;53.192;8.184;2022-10-16T17:36:28;8.17;;;4.70;;
17528;SDS011;8882;53.192;8.184;2022-10-16T17:38:57;9.03;;;4.43;;
17528;SDS011;8882;53.192;8.184;2022-10-16T17:41:25;6.53;;;4.17;;
17528;SDS011;8882;53.192;8.184;2022-10-16T17:43:51;6.63;;;4.47;;
17528;SDS011;8882;53.192;8.184;2022-10-16T17:46:18;7.60;;;4.87;;
17528;SDS011;8882;53.192;8.184;2022-10-16T17:48:46;12.47;;;5.00;;
17528;SDS011;8882;53.192;8.184;2022-10-16T17:51:13;6.53;;;4.97;;
17528;SDS011;8882;53.192;8.184;2022-10-16T17:53:40;5.53;;;4.23;;
17528;SDS011;8882;53.192;8.184;2022-10-16T17:56:08;8.93;;;4.70;;
17528;SDS011;8882;53.192;8.184;2022-10-16T17:58:35;6.43;;;4.90;;
17528;SDS011;8882;53.192;8.184;2022-10-16T18:01:01;9.37;;;4.73;;
17528;SDS011;8882;53.192;8.184;2022-10-16T18:03:39;8.13;;;5.13;;
17528;SDS011;8882;53.192;8.184;2022-10-16T18:06:05;7.40;;;5.20;;
17528;SDS011;8882;53.192;8.184;2022-10-16T18:08:31;11.63;;;5.13;;
17528;SDS011;8882;53.192;8.184;2022-10-16T18:11:00;5.00;;;3.97;;
17528;SDS011;8882;53.192;8.184;2022-10-16T18:13:26;8.60;;;5.23;;
17528;SDS011;8882;53.192;8.184;2022-10-16T18:15:59;8.07;;;4.53;;
17528;SDS011;8882;53.192;8.184;2022-10-16T18:18:29;10.10;;;6.10;;
17528;SDS011;8882;53.192;8.184;2022-10-16T18:20:55;30.07;;;14.80;;
17528;SDS011;8882;53.192;8.184;2022-10-16T18:23:25;21.43;;;11.60;;
17528;SDS011;8882;53.192;8.184;2022-10-16T18:25:51;17.80;;;9.13;;
17528;SDS011;8882;53.192;8.184;2022-10-16T18:28:17;14.03;;;8.00;;
17528;SDS011;8882;53.192;8.184;2022-10-16T18:30:42;13.33;;;8.50;;
17528;SDS011;8882;53.192;8.184;2022-10-16T18:33:08;12.03;;;6.73;;
17528;SDS011;8882;53.192;8.184;2022-10-16T18:35:36;9.43;;;5.73;;
17528;SDS011;8882;53.192;8.184;2022-10-16T18:38:02;10.63;;;6.13;;
17528;SDS011;8882;53.192;8.184;2022-10-16T18:40:28;7.93;;;5.67;;
17528;SDS011;8882;53.192;8.184;2022-10-16T18:42:53;10.00;;;5.77;;
17528;SDS011;8882;53.192;8.184;2022-10-16T18:45:19;13.37;;;5.80;;
17528;SDS011;8882;53.192;8.184;2022-10-16T18:47:45;8.43;;;5.80;;
17528;SDS011;8882;53.192;8.184;2022-10-16T18:50:11;12.70;;;5.97;;
17528;SDS011;8882;53.192;8.184;2022-10-16T18:52:36;8.93;;;5.87;;
17528;SDS011;8882;53.192;8.184;2022-10-16T18:55:03;11.43;;;6.40;;
17528;SDS011;8882;53.192;8.184;2022-10-16T18:57:29;8.60;;;6.30;;
17528;SDS011;8882;53.192;8.184;2022-10-16T18:59:55;12.73;;;7.83;;
17528;SDS011;8882;53.192;8.184;2022-10-16T19:02:21;13.57;;;7.97;;
17528;SDS011;8882;53.192;8.184;2022-10-16T19:04:46;13.63;;;8.83;;
17528;SDS011;8882;53.192;8.184;2022-10-16T19:07:12;16.77;;;10.37;;
17528;SDS011;8882;53.192;8.184;2022-10-16T19:09:39;20.97;;;10.53;;
17528;SDS011;8882;53.192;8.184;2022-10-16T19:12:05;13.30;;;8.90;;
17528;SDS011;8882;53.192;8.184;2022-10-16T19:14:31;17.60;;;10.53;;
17528;SDS011;8882;53.192;8.184;2022-10-16T19:16:57;18.63;;;11.07;;
17528;SDS011;8882;53.192;8.184;2022-10-16T19:19:23;15.27;;;9.07;;
17528;SDS011;8882;53.192;8.184;2022-10-16T19:21:49;16.27;;;8.87;;
17528;SDS011;8882;53.192;8.184;2022-10-16T19:24:20;14.80;;;9.13;;
17528;SDS011;8882;53.192;8.184;2022-10-16T19:26:46;16.40;;;8.90;;
17528;SDS011;8882;53.192;8.184;2022-10-16T19:29:11;17.23;;;9.00;;
17528;SDS011;8882;53.192;8.184;2022-10-16T19:31:38;12.57;;;8.20;;
17528;SDS011;8882;53.192;8.184;2022-10-16T19:34:04;14.47;;;8.63;;
17528;SDS011;8882;53.192;8.184;2022-10-16T19:36:32;16.63;;;8.73;;
17528;SDS011;8882;53.192;8.184;2022-10-16T19:39:00;16.60;;;9.60;;
17528;SDS011;8882;53.192;8.184;2022-10-16T19:41:29;17.10;;;9.70;;
17528;SDS011;8882;53.192;8.184;2022-10-16T19:43:58;16.17;;;9.60;;
17528;SDS011;8882;53.192;8.184;2022-10-16T19:46:29;20.20;;;10.27;;
17528;SDS011;8882;53.192;8.184;2022-10-16T19:48:56;16.87;;;10.17;;
17528;SDS011;8882;53.192;8.184;2022-10-16T19:51:24;16.83;;;9.63;;
17528;SDS011;8882;53.192;8.184;2022-10-16T19:53:54;17.50;;;9.93;;
17528;SDS011;8882;53.192;8.184;2022-10-16T19:56:21;13.57;;;9.10;;
17528;SDS011;8882;53.192;8.184;2022-10-16T19:58:48;15.57;;;9.43;;
17528;SDS011;8882;53.192;8.184;2022-10-16T20:01:15;16.13;;;9.33;;
17528;SDS011;8882;53.192;8.184;2022-10-16T20:03:44;17.37;;;9.87;;
17528;SDS011;8882;53.192;8.184;2022-10-16T20:06:11;12.73;;;8.10;;
17528;SDS011;8882;53.192;8.184;2022-10-16T20:08:38;12.80;;;8.13;;
17528;SDS011;8882;53.192;8.184;2022-10-16T20:11:05;17.60;;;9.07;;
17528;SDS011;8882;53.192;8.184;2022-10-16T20:13:36;18.77;;;8.20;;
17528;SDS011;8882;53.192;8.184;2022-10-16T20:16:02;15.67;;;9.63;;
17528;SDS011;8882;53.192;8.184;2022-10-16T20:18:28;17.10;;;8.37;;
17528;SDS011;8882;53.192;8.184;2022-10-16T20:20:54;14.43;;;8.93;;
17528;SDS011;8882;53.192;8.184;2022-10-16T20:23:20;15.47;;;8.37;;
17528;SDS011;8882;53.192;8.184;2022-10-16T20:25:46;12.03;;;8.97;;
17528;SDS011;8882;53.192;8.184;2022-10-16T20:28:13;14.50;;;10.30;;
17528;SDS011;8882;53.192;8.184;2022-10-16T20:30:41;14.50;;;8.77;;
17528;SDS011;8882;53.192;8.184;2022-10-16T20:33:08;14.10;;;9.67;;
17528;SDS011;8882;53.192;8.184;2022-10-16T20:35:35;16.17;;;9.07;;
17528;SDS011;8882;53.192;8.184;2022-10-16T20:38:02;12.63;;;8.20;;
17528;SDS011;8882;53.192;8.184;2022-10-16T20:40:28;12.80;;;8.13;;
17528;SDS011;8882;53.192;8.184;2022-10-16T20:42:54;14.90;;;9.40;;
17528;SDS011;8882;53.192;8.184;2022-10-16T20:45:19;11.40;;;7.50;;
17528;SDS011;8882;53.192;8.184;2022-10-16T20:47:45;13.00;;;7.23;;
17528;SDS011;8882;53.192;8.184;2022-10-16T20:50:10;14.20;;;7.77;;
17528;SDS011;8882;53.192;8.184;2022-10-16T20:52:37;13.10;;;7.53;;
17528;SDS011;8882;53.192;8.184;2022-10-16T20:55:03;11.90;;;8.30;;
17528;SDS011;8882;53.192;8.184;2022-10-16T20:57:29;15.93;;;7.47;;
17528;SDS011;8882;53.192;8.184;2022-10-16T20:59:55;16.47;;;7.10;;
